sensor_id;sensor_type;location;lat;lon;timestamp;P1;durP1;ratioP1;P2;durP2;ratioP2
5821;SDS011;2937;48.562;8.022;2023-03-31T00:03:49;7.60;;;2.93;;
5821;SDS011;2937;48.562;8.022;2023-03-31T00:08:42;7.10;;;3.10;;
5821;SDS011;2937;48.562;8.022;2023-03-31T00:13:36;7.07;;;2.60;;
5821;SDS011;2937;48.562;8.022;2023-03-31T00:18:29;5.37;;;3.10;;
5821;SDS011;2937;48.562;8.022;2023-03-31T00:23:21;8.33;;;3.07;;
5821;SDS011;2937;48.562;8.022;2023-03-31T00:28:18;6.20;;;2.90;;
5821;SDS011;2937;48.562;8.022;2023-03-31T00:33:12;8.87;;;3.07;;
5821;SDS011;2937;48.562;8.022;2023-03-31T00:38:06;8.43;;;3.30;;
5821;SDS011;2937;48.562;8.022;2023-03-31T00:43:04;8.77;;;3.10;;
5821;SDS011;2937;48.562;8.022;2023-03-31T00:48:10;8.10;;;3.13;;
5821;SDS011;2937;48.562;8.022;2023-03-31T00:53:08;7.20;;;3.80;;
5821;SDS011;2937;48.562;8.022;2023-03-31T00:58:01;7.43;;;3.83;;
5821;SDS011;2937;48.562;8.022;2023-03-31T01:02:55;8.40;;;5.00;;
5821;SDS011;2937;48.562;8.022;2023-03-31T01:07:49;12.40;;;4.80;;
5821;SDS011;2937;48.562;8.022;2023-03-31T01:12:45;9.17;;;4.47;;
5821;SDS011;2937;48.562;8.022;2023-03-31T01:17:38;8.50;;;4.30;;
5821;SDS011;2937;48.562;8.022;2023-03-31T01:22:48;7.20;;;4.00;;
5821;SDS011;2937;48.562;8.022;2023-03-31T01:27:57;18.43;;;5.13;;
5821;SDS011;2937;48.562;8.022;2023-03-31T01:32:58;12.13;;;4.67;;
5821;SDS011;2937;48.562;8.022;2023-03-31T01:43:11;10.30;;;4.60;;
5821;SDS011;2937;48.562;8.022;2023-03-31T01:48:07;10.03;;;4.43;;
5821;SDS011;2937;48.562;8.022;2023-03-31T01:53:04;7.63;;;4.93;;
5821;SDS011;2937;48.562;8.022;2023-03-31T01:58:01;6.73;;;4.50;;
5821;SDS011;2937;48.562;8.022;2023-03-31T02:02:58;9.10;;;4.70;;
5821;SDS011;2937;48.562;8.022;2023-03-31T02:07:53;12.23;;;4.53;;
5821;SDS011;2937;48.562;8.022;2023-03-31T02:12:47;10.47;;;6.23;;
5821;SDS011;2937;48.562;8.022;2023-03-31T02:17:41;16.17;;;8.00;;
5821;SDS011;2937;48.562;8.022;2023-03-31T02:22:39;9.10;;;4.70;;
5821;SDS011;2937;48.562;8.022;2023-03-31T02:27:32;8.20;;;4.83;;
5821;SDS011;2937;48.562;8.022;2023-03-31T02:32:28;9.90;;;4.93;;
5821;SDS011;2937;48.562;8.022;2023-03-31T02:37:24;7.17;;;4.57;;
5821;SDS011;2937;48.562;8.022;2023-03-31T02:42:18;8.33;;;5.20;;
5821;SDS011;2937;48.562;8.022;2023-03-31T02:47:13;9.77;;;5.50;;
5821;SDS011;2937;48.562;8.022;2023-03-31T02:52:15;12.27;;;5.47;;
5821;SDS011;2937;48.562;8.022;2023-03-31T02:57:22;9.57;;;5.50;;
5821;SDS011;2937;48.562;8.022;2023-03-31T03:02:20;11.57;;;7.37;;
5821;SDS011;2937;48.562;8.022;2023-03-31T03:07:17;15.07;;;8.40;;
5821;SDS011;2937;48.562;8.022;2023-03-31T03:12:13;17.77;;;7.93;;
5821;SDS011;2937;48.562;8.022;2023-03-31T03:17:09;15.67;;;7.53;;
5821;SDS011;2937;48.562;8.022;2023-03-31T03:22:03;11.00;;;7.33;;
5821;SDS011;2937;48.562;8.022;2023-03-31T03:26:59;11.50;;;5.60;;
5821;SDS011;2937;48.562;8.022;2023-03-31T03:31:51;9.93;;;5.50;;
5821;SDS011;2937;48.562;8.022;2023-03-31T03:36:45;8.23;;;4.63;;
5821;SDS011;2937;48.562;8.022;2023-03-31T03:41:38;12.50;;;5.40;;
5821;SDS011;2937;48.562;8.022;2023-03-31T03:46:31;10.70;;;5.93;;
5821;SDS011;2937;48.562;8.022;2023-03-31T03:51:23;14.80;;;6.03;;
5821;SDS011;2937;48.562;8.022;2023-03-31T03:56:17;11.77;;;6.07;;
5821;SDS011;2937;48.562;8.022;2023-03-31T04:01:10;17.47;;;7.30;;
5821;SDS011;2937;48.562;8.022;2023-03-31T04:06:02;10.40;;;6.30;;
5821;SDS011;2937;48.562;8.022;2023-03-31T04:10:55;9.70;;;6.20;;
5821;SDS011;2937;48.562;8.022;2023-03-31T04:15:49;16.30;;;6.63;;
5821;SDS011;2937;48.562;8.022;2023-03-31T04:20:42;13.57;;;6.67;;
5821;SDS011;2937;48.562;8.022;2023-03-31T04:25:35;13.93;;;5.70;;
5821;SDS011;2937;48.562;8.022;2023-03-31T04:30:29;10.43;;;6.80;;
5821;SDS011;2937;48.562;8.022;2023-03-31T04:35:24;11.73;;;7.10;;
5821;SDS011;2937;48.562;8.022;2023-03-31T04:40:17;13.90;;;7.10;;
5821;SDS011;2937;48.562;8.022;2023-03-31T04:45:10;12.10;;;7.20;;
5821;SDS011;2937;48.562;8.022;2023-03-31T04:50:03;14.43;;;8.27;;
5821;SDS011;2937;48.562;8.022;2023-03-31T04:54:58;13.80;;;8.30;;
5821;SDS011;2937;48.562;8.022;2023-03-31T04:59:50;16.70;;;7.77;;
5821;SDS011;2937;48.562;8.022;2023-03-31T05:04:43;14.57;;;7.63;;
5821;SDS011;2937;48.562;8.022;2023-03-31T05:09:36;12.90;;;8.63;;
5821;SDS011;2937;48.562;8.022;2023-03-31T05:14:30;17.50;;;9.43;;
5821;SDS011;2937;48.562;8.022;2023-03-31T05:19:23;17.60;;;9.67;;
5821;SDS011;2937;48.562;8.022;2023-03-31T05:24:16;15.57;;;9.50;;
5821;SDS011;2937;48.562;8.022;2023-03-31T05:29:08;13.50;;;9.27;;
5821;SDS011;2937;48.562;8.022;2023-03-31T05:34:02;18.17;;;9.60;;
5821;SDS011;2937;48.562;8.022;2023-03-31T05:38:55;17.33;;;10.30;;
5821;SDS011;2937;48.562;8.022;2023-03-31T05:43:47;21.57;;;11.43;;
5821;SDS011;2937;48.562;8.022;2023-03-31T05:48:40;17.50;;;10.67;;
5821;SDS011;2937;48.562;8.022;2023-03-31T05:53:34;19.17;;;10.40;;
5821;SDS011;2937;48.562;8.022;2023-03-31T05:58:27;22.00;;;12.50;;
5821;SDS011;2937;48.562;8.022;2023-03-31T06:03:19;19.47;;;10.90;;
5821;SDS011;2937;48.562;8.022;2023-03-31T06:08:12;14.30;;;8.30;;
5821;SDS011;2937;48.562;8.022;2023-03-31T06:13:07;17.20;;;10.03;;
5821;SDS011;2937;48.562;8.022;2023-03-31T06:17:59;21.03;;;9.80;;
5821;SDS011;2937;48.562;8.022;2023-03-31T06:22:52;13.63;;;7.53;;
5821;SDS011;2937;48.562;8.022;2023-03-31T06:27:45;10.53;;;7.37;;
5821;SDS011;2937;48.562;8.022;2023-03-31T06:32:39;14.27;;;6.80;;
5821;SDS011;2937;48.562;8.022;2023-03-31T06:37:31;7.80;;;5.47;;
5821;SDS011;2937;48.562;8.022;2023-03-31T06:42:24;7.60;;;4.13;;
5821;SDS011;2937;48.562;8.022;2023-03-31T06:47:20;4.60;;;3.70;;
5821;SDS011;2937;48.562;8.022;2023-03-31T06:52:16;7.40;;;3.57;;
5821;SDS011;2937;48.562;8.022;2023-03-31T06:57:09;6.33;;;3.50;;
5821;SDS011;2937;48.562;8.022;2023-03-31T07:02:02;7.57;;;3.30;;
5821;SDS011;2937;48.562;8.022;2023-03-31T07:06:54;4.53;;;2.80;;
5821;SDS011;2937;48.562;8.022;2023-03-31T07:11:50;5.60;;;2.90;;
5821;SDS011;2937;48.562;8.022;2023-03-31T07:16:46;4.73;;;2.50;;
5821;SDS011;2937;48.562;8.022;2023-03-31T07:21:41;3.40;;;2.13;;
5821;SDS011;2937;48.562;8.022;2023-03-31T07:26:37;4.87;;;2.10;;
5821;SDS011;2937;48.562;8.022;2023-03-31T07:31:31;4.23;;;2.30;;
5821;SDS011;2937;48.562;8.022;2023-03-31T07:36:23;4.40;;;2.30;;
5821;SDS011;2937;48.562;8.022;2023-03-31T07:41:17;3.37;;;2.50;;
5821;SDS011;2937;48.562;8.022;2023-03-31T07:46:13;3.63;;;2.30;;
5821;SDS011;2937;48.562;8.022;2023-03-31T07:51:08;4.53;;;2.77;;
5821;SDS011;2937;48.562;8.022;2023-03-31T07:56:01;4.00;;;2.30;;
5821;SDS011;2937;48.562;8.022;2023-03-31T08:00:53;3.60;;;2.00;;
5821;SDS011;2937;48.562;8.022;2023-03-31T08:05:46;3.10;;;2.30;;
5821;SDS011;2937;48.562;8.022;2023-03-31T08:10:44;4.27;;;2.20;;
5821;SDS011;2937;48.562;8.022;2023-03-31T08:15:36;4.10;;;2.30;;
5821;SDS011;2937;48.562;8.022;2023-03-31T08:20:29;4.43;;;1.93;;
5821;SDS011;2937;48.562;8.022;2023-03-31T08:25:21;3.83;;;2.30;;
5821;SDS011;2937;48.562;8.022;2023-03-31T08:30:16;2.43;;;2.23;;
5821;SDS011;2937;48.562;8.022;2023-03-31T08:35:09;3.73;;;2.00;;
5821;SDS011;2937;48.562;8.022;2023-03-31T08:40:02;3.07;;;2.27;;
5821;SDS011;2937;48.562;8.022;2023-03-31T08:44:56;2.50;;;2.10;;
5821;SDS011;2937;48.562;8.022;2023-03-31T08:49:53;3.30;;;1.80;;
5821;SDS011;2937;48.562;8.022;2023-03-31T08:54:48;4.30;;;2.23;;
5821;SDS011;2937;48.562;8.022;2023-03-31T08:59:41;3.97;;;2.17;;
5821;SDS011;2937;48.562;8.022;2023-03-31T09:04:42;3.77;;;1.90;;
5821;SDS011;2937;48.562;8.022;2023-03-31T09:09:41;5.60;;;2.20;;
5821;SDS011;2937;48.562;8.022;2023-03-31T09:14:35;6.40;;;2.10;;
5821;SDS011;2937;48.562;8.022;2023-03-31T09:19:32;6.00;;;2.20;;
5821;SDS011;2937;48.562;8.022;2023-03-31T09:24:26;8.67;;;2.50;;
5821;SDS011;2937;48.562;8.022;2023-03-31T09:29:27;5.07;;;2.43;;
5821;SDS011;2937;48.562;8.022;2023-03-31T09:34:23;4.93;;;2.10;;
5821;SDS011;2937;48.562;8.022;2023-03-31T09:39:16;5.40;;;2.50;;
5821;SDS011;2937;48.562;8.022;2023-03-31T09:44:11;6.10;;;2.73;;
5821;SDS011;2937;48.562;8.022;2023-03-31T09:49:09;4.30;;;1.63;;
5821;SDS011;2937;48.562;8.022;2023-03-31T09:54:06;8.67;;;2.00;;
5821;SDS011;2937;48.562;8.022;2023-03-31T09:59:00;5.60;;;1.97;;
5821;SDS011;2937;48.562;8.022;2023-03-31T10:03:54;7.17;;;2.07;;
5821;SDS011;2937;48.562;8.022;2023-03-31T10:08:50;6.47;;;2.00;;
5821;SDS011;2937;48.562;8.022;2023-03-31T10:13:44;6.90;;;3.00;;
5821;SDS011;2937;48.562;8.022;2023-03-31T10:18:38;5.93;;;1.80;;
5821;SDS011;2937;48.562;8.022;2023-03-31T10:23:32;7.23;;;2.33;;
5821;SDS011;2937;48.562;8.022;2023-03-31T10:28:26;10.30;;;2.30;;
5821;SDS011;2937;48.562;8.022;2023-03-31T10:33:22;7.23;;;1.50;;
5821;SDS011;2937;48.562;8.022;2023-03-31T10:38:16;5.63;;;2.10;;
5821;SDS011;2937;48.562;8.022;2023-03-31T10:43:14;5.73;;;1.87;;
5821;SDS011;2937;48.562;8.022;2023-03-31T10:48:16;6.87;;;1.60;;
5821;SDS011;2937;48.562;8.022;2023-03-31T10:53:10;3.97;;;1.40;;
5821;SDS011;2937;48.562;8.022;2023-03-31T10:58:05;2.23;;;1.50;;
5821;SDS011;2937;48.562;8.022;2023-03-31T11:03:03;7.23;;;2.10;;
5821;SDS011;2937;48.562;8.022;2023-03-31T11:08:02;1.57;;;1.40;;
5821;SDS011;2937;48.562;8.022;2023-03-31T11:12:59;3.17;;;1.90;;
5821;SDS011;2937;48.562;8.022;2023-03-31T11:17:55;5.60;;;2.40;;
5821;SDS011;2937;48.562;8.022;2023-03-31T11:22:52;2.00;;;1.37;;
5821;SDS011;2937;48.562;8.022;2023-03-31T11:33:16;4.73;;;1.30;;
5821;SDS011;2937;48.562;8.022;2023-03-31T11:38:17;2.13;;;1.20;;
5821;SDS011;2937;48.562;8.022;2023-03-31T11:43:15;1.97;;;1.20;;
5821;SDS011;2937;48.562;8.022;2023-03-31T11:48:13;3.17;;;1.37;;
5821;SDS011;2937;48.562;8.022;2023-03-31T11:53:12;1.90;;;1.40;;
5821;SDS011;2937;48.562;8.022;2023-03-31T11:58:09;5.17;;;1.60;;
5821;SDS011;2937;48.562;8.022;2023-03-31T12:03:05;5.17;;;2.70;;
5821;SDS011;2937;48.562;8.022;2023-03-31T12:08:01;15.10;;;3.87;;
5821;SDS011;2937;48.562;8.022;2023-03-31T12:12:58;3.50;;;1.70;;
5821;SDS011;2937;48.562;8.022;2023-03-31T12:17:56;3.50;;;1.40;;
5821;SDS011;2937;48.562;8.022;2023-03-31T12:22:51;3.50;;;1.60;;
5821;SDS011;2937;48.562;8.022;2023-03-31T12:27:44;7.47;;;3.60;;
5821;SDS011;2937;48.562;8.022;2023-03-31T12:32:42;6.77;;;4.03;;
5821;SDS011;2937;48.562;8.022;2023-03-31T12:37:43;8.37;;;2.30;;
5821;SDS011;2937;48.562;8.022;2023-03-31T12:43:04;6.53;;;2.10;;
5821;SDS011;2937;48.562;8.022;2023-03-31T12:48:30;5.20;;;3.07;;
5821;SDS011;2937;48.562;8.022;2023-03-31T12:53:28;2.97;;;1.47;;
5821;SDS011;2937;48.562;8.022;2023-03-31T12:58:43;4.40;;;1.70;;
5821;SDS011;2937;48.562;8.022;2023-03-31T13:03:39;6.87;;;1.67;;
5821;SDS011;2937;48.562;8.022;2023-03-31T13:08:49;4.73;;;2.03;;
5821;SDS011;2937;48.562;8.022;2023-03-31T13:13:43;4.10;;;1.70;;
5821;SDS011;2937;48.562;8.022;2023-03-31T13:18:52;2.60;;;1.40;;
5821;SDS011;2937;48.562;8.022;2023-03-31T13:23:45;3.07;;;1.50;;
5821;SDS011;2937;48.562;8.022;2023-03-31T13:28:38;2.30;;;1.17;;
5821;SDS011;2937;48.562;8.022;2023-03-31T13:33:33;2.17;;;1.10;;
5821;SDS011;2937;48.562;8.022;2023-03-31T13:38:31;1.13;;;0.97;;
5821;SDS011;2937;48.562;8.022;2023-03-31T13:48:43;3.37;;;1.40;;
5821;SDS011;2937;48.562;8.022;2023-03-31T13:53:49;2.30;;;1.33;;
5821;SDS011;2937;48.562;8.022;2023-03-31T14:04:07;2.77;;;1.40;;
5821;SDS011;2937;48.562;8.022;2023-03-31T14:09:07;5.30;;;2.50;;
5821;SDS011;2937;48.562;8.022;2023-03-31T14:14:01;6.00;;;2.33;;
5821;SDS011;2937;48.562;8.022;2023-03-31T14:18:56;4.80;;;1.80;;
5821;SDS011;2937;48.562;8.022;2023-03-31T14:23:54;4.43;;;1.40;;
5821;SDS011;2937;48.562;8.022;2023-03-31T14:28:53;5.07;;;1.30;;
5821;SDS011;2937;48.562;8.022;2023-03-31T14:33:52;2.43;;;1.27;;
5821;SDS011;2937;48.562;8.022;2023-03-31T14:38:46;1.97;;;1.40;;
5821;SDS011;2937;48.562;8.022;2023-03-31T14:43:39;2.60;;;1.30;;
5821;SDS011;2937;48.562;8.022;2023-03-31T14:48:40;3.00;;;1.30;;
5821;SDS011;2937;48.562;8.022;2023-03-31T14:53:35;1.10;;;1.00;;
5821;SDS011;2937;48.562;8.022;2023-03-31T14:58:28;2.07;;;1.00;;
5821;SDS011;2937;48.562;8.022;2023-03-31T15:03:25;2.83;;;1.10;;
5821;SDS011;2937;48.562;8.022;2023-03-31T15:08:19;1.87;;;1.20;;
5821;SDS011;2937;48.562;8.022;2023-03-31T15:13:14;4.50;;;1.97;;
5821;SDS011;2937;48.562;8.022;2023-03-31T15:18:08;3.37;;;1.60;;
5821;SDS011;2937;48.562;8.022;2023-03-31T15:23:03;3.40;;;1.47;;
5821;SDS011;2937;48.562;8.022;2023-03-31T15:27:59;11.90;;;8.80;;
5821;SDS011;2937;48.562;8.022;2023-03-31T15:32:53;2.20;;;0.97;;
5821;SDS011;2937;48.562;8.022;2023-03-31T15:38:02;2.23;;;1.30;;
5821;SDS011;2937;48.562;8.022;2023-03-31T15:42:56;2.67;;;1.87;;
5821;SDS011;2937;48.562;8.022;2023-03-31T15:48:08;3.53;;;2.63;;
5821;SDS011;2937;48.562;8.022;2023-03-31T15:53:18;2.23;;;1.43;;
5821;SDS011;2937;48.562;8.022;2023-03-31T15:58:14;1.50;;;1.20;;
5821;SDS011;2937;48.562;8.022;2023-03-31T16:03:13;2.57;;;1.30;;
5821;SDS011;2937;48.562;8.022;2023-03-31T16:08:08;7.47;;;4.63;;
5821;SDS011;2937;48.562;8.022;2023-03-31T16:13:03;7.40;;;4.13;;
5821;SDS011;2937;48.562;8.022;2023-03-31T16:17:58;1.20;;;1.10;;
5821;SDS011;2937;48.562;8.022;2023-03-31T16:22:53;1.40;;;1.20;;
5821;SDS011;2937;48.562;8.022;2023-03-31T16:27:49;2.50;;;1.43;;
5821;SDS011;2937;48.562;8.022;2023-03-31T16:32:59;2.40;;;1.40;;
5821;SDS011;2937;48.562;8.022;2023-03-31T16:37:54;6.27;;;3.43;;
5821;SDS011;2937;48.562;8.022;2023-03-31T16:42:47;4.17;;;2.60;;
5821;SDS011;2937;48.562;8.022;2023-03-31T16:47:39;7.00;;;4.10;;
5821;SDS011;2937;48.562;8.022;2023-03-31T16:52:36;3.30;;;2.20;;
5821;SDS011;2937;48.562;8.022;2023-03-31T16:57:30;4.43;;;2.10;;
5821;SDS011;2937;48.562;8.022;2023-03-31T17:02:23;5.47;;;2.20;;
5821;SDS011;2937;48.562;8.022;2023-03-31T17:07:16;7.83;;;5.93;;
5821;SDS011;2937;48.562;8.022;2023-03-31T17:12:09;5.40;;;3.17;;
5821;SDS011;2937;48.562;8.022;2023-03-31T17:17:03;3.73;;;2.80;;
5821;SDS011;2937;48.562;8.022;2023-03-31T17:21:55;6.43;;;3.80;;
5821;SDS011;2937;48.562;8.022;2023-03-31T17:26:52;4.33;;;2.93;;
5821;SDS011;2937;48.562;8.022;2023-03-31T17:31:44;8.50;;;7.10;;
5821;SDS011;2937;48.562;8.022;2023-03-31T17:36:38;8.70;;;4.53;;
5821;SDS011;2937;48.562;8.022;2023-03-31T17:41:32;5.33;;;2.43;;
5821;SDS011;2937;48.562;8.022;2023-03-31T17:46:24;4.00;;;2.43;;
5821;SDS011;2937;48.562;8.022;2023-03-31T17:51:17;5.93;;;2.50;;
5821;SDS011;2937;48.562;8.022;2023-03-31T17:56:12;10.90;;;6.30;;
5821;SDS011;2937;48.562;8.022;2023-03-31T18:01:05;26.57;;;12.70;;
5821;SDS011;2937;48.562;8.022;2023-03-31T18:06:01;4.50;;;2.77;;
5821;SDS011;2937;48.562;8.022;2023-03-31T18:10:54;7.23;;;4.43;;
5821;SDS011;2937;48.562;8.022;2023-03-31T18:15:48;8.60;;;5.60;;
5821;SDS011;2937;48.562;8.022;2023-03-31T18:20:43;4.90;;;2.50;;
5821;SDS011;2937;48.562;8.022;2023-03-31T18:25:35;20.20;;;11.20;;
5821;SDS011;2937;48.562;8.022;2023-03-31T18:30:28;4.50;;;2.93;;
5821;SDS011;2937;48.562;8.022;2023-03-31T18:35:22;5.33;;;3.07;;
5821;SDS011;2937;48.562;8.022;2023-03-31T18:40:15;5.53;;;2.77;;
5821;SDS011;2937;48.562;8.022;2023-03-31T18:45:08;5.10;;;2.10;;
5821;SDS011;2937;48.562;8.022;2023-03-31T18:50:01;2.80;;;2.10;;
5821;SDS011;2937;48.562;8.022;2023-03-31T18:54:55;1.83;;;1.50;;
5821;SDS011;2937;48.562;8.022;2023-03-31T18:59:47;4.10;;;1.97;;
5821;SDS011;2937;48.562;8.022;2023-03-31T19:04:40;4.00;;;2.00;;
5821;SDS011;2937;48.562;8.022;2023-03-31T19:09:33;3.50;;;1.90;;
5821;SDS011;2937;48.562;8.022;2023-03-31T19:14:27;4.07;;;1.87;;
5821;SDS011;2937;48.562;8.022;2023-03-31T19:19:20;6.53;;;1.87;;
5821;SDS011;2937;48.562;8.022;2023-03-31T19:24:13;4.17;;;2.13;;
5821;SDS011;2937;48.562;8.022;2023-03-31T19:29:06;4.90;;;2.30;;
5821;SDS011;2937;48.562;8.022;2023-03-31T19:34:01;5.27;;;2.10;;
5821;SDS011;2937;48.562;8.022;2023-03-31T19:38:54;6.83;;;2.93;;
5821;SDS011;2937;48.562;8.022;2023-03-31T19:43:46;8.60;;;2.00;;
5821;SDS011;2937;48.562;8.022;2023-03-31T19:48:39;3.87;;;1.97;;
5821;SDS011;2937;48.562;8.022;2023-03-31T19:53:34;6.13;;;1.80;;
5821;SDS011;2937;48.562;8.022;2023-03-31T19:58:28;4.33;;;2.00;;
5821;SDS011;2937;48.562;8.022;2023-03-31T20:03:23;7.60;;;1.93;;
5821;SDS011;2937;48.562;8.022;2023-03-31T20:08:16;6.47;;;2.00;;
5821;SDS011;2937;48.562;8.022;2023-03-31T20:13:10;2.20;;;1.53;;
5821;SDS011;2937;48.562;8.022;2023-03-31T20:18:03;2.17;;;1.70;;
5821;SDS011;2937;48.562;8.022;2023-03-31T20:22:55;2.17;;;1.50;;
5821;SDS011;2937;48.562;8.022;2023-03-31T20:27:49;4.37;;;1.77;;
5821;SDS011;2937;48.562;8.022;2023-03-31T20:32:43;3.60;;;2.00;;
5821;SDS011;2937;48.562;8.022;2023-03-31T20:37:36;3.87;;;1.70;;
5821;SDS011;2937;48.562;8.022;2023-03-31T20:42:29;2.90;;;1.40;;
5821;SDS011;2937;48.562;8.022;2023-03-31T20:47:21;1.97;;;1.33;;
5821;SDS011;2937;48.562;8.022;2023-03-31T20:52:16;3.30;;;1.50;;
5821;SDS011;2937;48.562;8.022;2023-03-31T20:57:11;4.03;;;1.67;;
5821;SDS011;2937;48.562;8.022;2023-03-31T21:02:03;4.13;;;1.47;;
5821;SDS011;2937;48.562;8.022;2023-03-31T21:06:57;2.50;;;1.40;;
5821;SDS011;2937;48.562;8.022;2023-03-31T21:11:51;4.80;;;1.67;;
5821;SDS011;2937;48.562;8.022;2023-03-31T21:16:44;5.30;;;1.87;;
5821;SDS011;2937;48.562;8.022;2023-03-31T21:21:36;4.40;;;1.80;;
5821;SDS011;2937;48.562;8.022;2023-03-31T21:26:31;4.77;;;1.90;;
5821;SDS011;2937;48.562;8.022;2023-03-31T21:31:25;3.20;;;1.93;;
5821;SDS011;2937;48.562;8.022;2023-03-31T21:36:18;5.57;;;1.60;;
5821;SDS011;2937;48.562;8.022;2023-03-31T21:41:12;4.57;;;1.83;;
5821;SDS011;2937;48.562;8.022;2023-03-31T21:46:05;3.80;;;2.10;;
5821;SDS011;2937;48.562;8.022;2023-03-31T21:51:00;3.93;;;1.50;;
5821;SDS011;2937;48.562;8.022;2023-03-31T21:55:53;6.50;;;1.60;;
5821;SDS011;2937;48.562;8.022;2023-03-31T22:00:46;4.13;;;1.80;;
5821;SDS011;2937;48.562;8.022;2023-03-31T22:05:39;8.93;;;1.87;;
5821;SDS011;2937;48.562;8.022;2023-03-31T22:10:33;3.87;;;1.97;;
5821;SDS011;2937;48.562;8.022;2023-03-31T22:15:26;2.30;;;1.70;;
5821;SDS011;2937;48.562;8.022;2023-03-31T22:20:18;3.77;;;1.67;;
5821;SDS011;2937;48.562;8.022;2023-03-31T22:25:11;1.77;;;1.27;;
5821;SDS011;2937;48.562;8.022;2023-03-31T22:30:06;4.80;;;1.60;;
5821;SDS011;2937;48.562;8.022;2023-03-31T22:34:59;5.33;;;1.67;;
5821;SDS011;2937;48.562;8.022;2023-03-31T22:39:52;3.27;;;1.43;;
5821;SDS011;2937;48.562;8.022;2023-03-31T22:44:44;5.40;;;1.30;;
5821;SDS011;2937;48.562;8.022;2023-03-31T22:49:38;3.43;;;1.40;;
5821;SDS011;2937;48.562;8.022;2023-03-31T22:54:31;4.33;;;1.57;;
5821;SDS011;2937;48.562;8.022;2023-03-31T22:59:23;4.40;;;1.67;;
5821;SDS011;2937;48.562;8.022;2023-03-31T23:04:16;6.40;;;1.70;;
5821;SDS011;2937;48.562;8.022;2023-03-31T23:09:10;5.80;;;1.80;;
5821;SDS011;2937;48.562;8.022;2023-03-31T23:14:02;8.60;;;2.10;;
5821;SDS011;2937;48.562;8.022;2023-03-31T23:18:55;7.77;;;2.10;;
5821;SDS011;2937;48.562;8.022;2023-03-31T23:23:48;3.17;;;1.70;;
5821;SDS011;2937;48.562;8.022;2023-03-31T23:28:43;3.00;;;1.70;;
5821;SDS011;2937;48.562;8.022;2023-03-31T23:33:38;4.73;;;1.80;;
5821;SDS011;2937;48.562;8.022;2023-03-31T23:38:31;7.50;;;1.97;;
5821;SDS011;2937;48.562;8.022;2023-03-31T23:43:24;5.47;;;1.70;;
5821;SDS011;2937;48.562;8.022;2023-03-31T23:48:19;4.57;;;1.50;;
5821;SDS011;2937;48.562;8.022;2023-03-31T23:53:12;7.10;;;2.10;;
5821;SDS011;2937;48.562;8.022;2023-03-31T23:58:05;4.20;;;1.30;;
